sensor_id;sensor_type;location;lat;lon;timestamp;pressure;altitude;pressure_sealevel;temperature;humidity
24230;BME280;12362;50.004;8.006;2024-02-21T00:02:07;101506.50;;;8.69;100.00
24230;BME280;12362;50.004;8.006;2024-02-21T00:04:33;101508.25;;;8.67;100.00
24230;BME280;12362;50.004;8.006;2024-02-21T00:06:59;101504.06;;;8.63;100.00
24230;BME280;12362;50.004;8.006;2024-02-21T00:09:24;101498.06;;;8.61;100.00
24230;BME280;12362;50.004;8.006;2024-02-21T00:11:49;101489.47;;;8.59;100.00
24230;BME280;12362;50.004;8.006;2024-02-21T00:14:15;101495.59;;;8.57;100.00
24230;BME280;12362;50.004;8.006;2024-02-21T00:16:41;101489.47;;;8.59;100.00
24230;BME280;12362;50.004;8.006;2024-02-21T00:19:06;101486.13;;;8.54;100.00
24230;BME280;12362;50.004;8.006;2024-02-21T00:21:32;101478.38;;;8.54;100.00
24230;BME280;12362;50.004;8.006;2024-02-21T00:23:57;101475.00;;;8.51;100.00
24230;BME280;12362;50.004;8.006;2024-02-21T00:26:23;101466.47;;;8.47;100.00
24230;BME280;12362;50.004;8.006;2024-02-21T00:28:48;101462.19;;;8.46;100.00
24230;BME280;12362;50.004;8.006;2024-02-21T00:31:14;101452.75;;;8.44;100.00
24230;BME280;12362;50.004;8.006;2024-02-21T00:33:39;101449.69;;;8.28;100.00
24230;BME280;12362;50.004;8.006;2024-02-21T00:36:05;101453.00;;;8.33;100.00
24230;BME280;12362;50.004;8.006;2024-02-21T00:38:30;101447.94;;;8.29;100.00
24230;BME280;12362;50.004;8.006;2024-02-21T00:40:56;101444.50;;;8.27;100.00
24230;BME280;12362;50.004;8.006;2024-02-21T00:43:21;101447.09;;;8.27;100.00
24230;BME280;12362;50.004;8.006;2024-02-21T00:45:49;101448.00;;;8.26;100.00
24230;BME280;12362;50.004;8.006;2024-02-21T00:48:15;101455.75;;;8.26;100.00
24230;BME280;12362;50.004;8.006;2024-02-21T00:50:40;101464.38;;;8.26;100.00
24230;BME280;12362;50.004;8.006;2024-02-21T00:53:06;101458.38;;;8.24;100.00
24230;BME280;12362;50.004;8.006;2024-02-21T00:55:31;101458.22;;;8.30;100.00
24230;BME280;12362;50.004;8.006;2024-02-21T00:57:57;101446.94;;;8.34;100.00
24230;BME280;12362;50.004;8.006;2024-02-21T01:00:22;101444.22;;;8.40;100.00
24230;BME280;12362;50.004;8.006;2024-02-21T01:02:48;101445.88;;;8.43;100.00
24230;BME280;12362;50.004;8.006;2024-02-21T01:05:13;101448.41;;;8.44;100.00
24230;BME280;12362;50.004;8.006;2024-02-21T01:07:39;101462.94;;;8.50;100.00
24230;BME280;12362;50.004;8.006;2024-02-21T01:10:05;101456.00;;;8.52;100.00
24230;BME280;12362;50.004;8.006;2024-02-21T01:12:30;101454.38;;;8.48;100.00
24230;BME280;12362;50.004;8.006;2024-02-21T01:14:56;101454.41;;;8.46;100.00
24230;BME280;12362;50.004;8.006;2024-02-21T01:17:21;101451.00;;;8.44;100.00
24230;BME280;12362;50.004;8.006;2024-02-21T01:19:47;101442.59;;;8.35;100.00
24230;BME280;12362;50.004;8.006;2024-02-21T01:22:12;101440.09;;;8.32;100.00
24230;BME280;12362;50.004;8.006;2024-02-21T01:24:38;101443.69;;;8.26;100.00
24230;BME280;12362;50.004;8.006;2024-02-21T01:27:04;101433.50;;;8.19;100.00
24230;BME280;12362;50.004;8.006;2024-02-21T01:29:29;101428.50;;;8.10;100.00
24230;BME280;12362;50.004;8.006;2024-02-21T01:31:55;101423.56;;;8.00;100.00
24230;BME280;12362;50.004;8.006;2024-02-21T01:34:20;101424.41;;;8.00;100.00
24230;BME280;12362;50.004;8.006;2024-02-21T01:36:46;101413.16;;;8.01;100.00
24230;BME280;12362;50.004;8.006;2024-02-21T01:39:11;101414.81;;;8.05;100.00
24230;BME280;12362;50.004;8.006;2024-02-21T01:41:37;101413.00;;;8.08;100.00
24230;BME280;12362;50.004;8.006;2024-02-21T01:44:02;101407.81;;;8.10;100.00
24230;BME280;12362;50.004;8.006;2024-02-21T01:46:32;101397.38;;;8.13;100.00
24230;BME280;12362;50.004;8.006;2024-02-21T01:48:59;101404.28;;;8.15;100.00
24230;BME280;12362;50.004;8.006;2024-02-21T01:51:25;101403.53;;;8.09;100.00
24230;BME280;12362;50.004;8.006;2024-02-21T01:53:51;101392.66;;;7.94;100.00
24230;BME280;12362;50.004;8.006;2024-02-21T01:56:18;101399.72;;;7.86;100.00
24230;BME280;12362;50.004;8.006;2024-02-21T01:58:45;101395.59;;;7.79;100.00
24230;BME280;12362;50.004;8.006;2024-02-21T02:01:12;101399.16;;;7.73;100.00
24230;BME280;12362;50.004;8.006;2024-02-21T02:03:38;101391.56;;;7.66;100.00
24230;BME280;12362;50.004;8.006;2024-02-21T02:06:06;101385.66;;;7.59;100.00
24230;BME280;12362;50.004;8.006;2024-02-21T02:08:32;101394.34;;;7.55;100.00
24230;BME280;12362;50.004;8.006;2024-02-21T02:10:58;101390.06;;;7.56;100.00
24230;BME280;12362;50.004;8.006;2024-02-21T02:13:24;101384.84;;;7.57;100.00
24230;BME280;12362;50.004;8.006;2024-02-21T02:15:50;101383.19;;;7.53;100.00
24230;BME280;12362;50.004;8.006;2024-02-21T02:18:17;101394.50;;;7.48;100.00
24230;BME280;12362;50.004;8.006;2024-02-21T02:20:44;101380.13;;;7.36;100.00
24230;BME280;12362;50.004;8.006;2024-02-21T02:23:12;101370.78;;;7.29;100.00
24230;BME280;12362;50.004;8.006;2024-02-21T02:25:39;101369.25;;;7.21;100.00
24230;BME280;12362;50.004;8.006;2024-02-21T02:28:08;101365.13;;;7.13;100.00
24230;BME280;12362;50.004;8.006;2024-02-21T02:30:35;101360.88;;;7.09;100.00
24230;BME280;12362;50.004;8.006;2024-02-21T02:33:02;101363.59;;;7.03;100.00
24230;BME280;12362;50.004;8.006;2024-02-21T02:35:28;101369.78;;;6.94;100.00
24230;BME280;12362;50.004;8.006;2024-02-21T02:37:53;101379.44;;;6.83;100.00
24230;BME280;12362;50.004;8.006;2024-02-21T02:40:19;101378.56;;;6.84;100.00
24230;BME280;12362;50.004;8.006;2024-02-21T02:42:45;101380.97;;;6.93;100.00
24230;BME280;12362;50.004;8.006;2024-02-21T02:45:11;101369.63;;;7.02;100.00
24230;BME280;12362;50.004;8.006;2024-02-21T02:47:36;101365.28;;;7.04;100.00
24230;BME280;12362;50.004;8.006;2024-02-21T02:50:02;101355.84;;;7.03;100.00
24230;BME280;12362;50.004;8.006;2024-02-21T02:52:28;101350.59;;;7.07;100.00
24230;BME280;12362;50.004;8.006;2024-02-21T02:54:54;101342.84;;;7.07;100.00
24230;BME280;12362;50.004;8.006;2024-02-21T02:57:21;101343.66;;;7.09;100.00
24230;BME280;12362;50.004;8.006;2024-02-21T02:59:48;101330.97;;;6.99;100.00
24230;BME280;12362;50.004;8.006;2024-02-21T03:02:13;101337.91;;;6.95;100.00
24230;BME280;12362;50.004;8.006;2024-02-21T03:04:39;101329.31;;;6.95;100.00
24230;BME280;12362;50.004;8.006;2024-02-21T03:07:06;101325.69;;;7.03;100.00
24230;BME280;12362;50.004;8.006;2024-02-21T03:09:31;101323.78;;;7.13;100.00
24230;BME280;12362;50.004;8.006;2024-02-21T03:11:57;101322.84;;;7.17;100.00
24230;BME280;12362;50.004;8.006;2024-02-21T03:14:28;101311.75;;;7.12;100.00
24230;BME280;12362;50.004;8.006;2024-02-21T03:16:54;101306.75;;;7.04;100.00
24230;BME280;12362;50.004;8.006;2024-02-21T03:19:20;101304.06;;;7.10;100.00
24230;BME280;12362;50.004;8.006;2024-02-21T03:21:45;101302.28;;;7.12;100.00
24230;BME280;12362;50.004;8.006;2024-02-21T03:24:11;101302.41;;;7.05;100.00
24230;BME280;12362;50.004;8.006;2024-02-21T03:26:36;101305.31;;;6.90;100.00
24230;BME280;12362;50.004;8.006;2024-02-21T03:29:03;101304.41;;;6.92;100.00
24230;BME280;12362;50.004;8.006;2024-02-21T03:31:28;101300.03;;;6.97;100.00
24230;BME280;12362;50.004;8.006;2024-02-21T03:33:54;101299.06;;;7.01;100.00
24230;BME280;12362;50.004;8.006;2024-02-21T03:36:20;101299.00;;;7.04;100.00
24230;BME280;12362;50.004;8.006;2024-02-21T03:38:45;101296.47;;;7.03;100.00
24230;BME280;12362;50.004;8.006;2024-02-21T03:41:11;101299.78;;;7.08;100.00
24230;BME280;12362;50.004;8.006;2024-02-21T03:43:39;101309.28;;;7.07;100.00
24230;BME280;12362;50.004;8.006;2024-02-21T03:46:05;101315.34;;;7.05;100.00
24230;BME280;12362;50.004;8.006;2024-02-21T03:48:31;101312.63;;;7.11;100.00
24230;BME280;12362;50.004;8.006;2024-02-21T03:50:58;101315.94;;;7.17;100.00
24230;BME280;12362;50.004;8.006;2024-02-21T03:53:23;101316.00;;;7.14;100.00
24230;BME280;12362;50.004;8.006;2024-02-21T03:55:49;101308.25;;;7.14;100.00
24230;BME280;12362;50.004;8.006;2024-02-21T03:58:14;101304.84;;;7.14;100.00
24230;BME280;12362;50.004;8.006;2024-02-21T04:00:40;101298.72;;;7.18;100.00
24230;BME280;12362;50.004;8.006;2024-02-21T04:03:05;101303.88;;;7.18;100.00
24230;BME280;12362;50.004;8.006;2024-02-21T04:05:32;101285.84;;;7.16;100.00
24230;BME280;12362;50.004;8.006;2024-02-21T04:07:57;101274.69;;;7.14;100.00
24230;BME280;12362;50.004;8.006;2024-02-21T04:10:23;101284.41;;;7.03;100.00
24230;BME280;12362;50.004;8.006;2024-02-21T04:12:48;101275.91;;;6.97;100.00
24230;BME280;12362;50.004;8.006;2024-02-21T04:15:18;101281.19;;;6.92;100.00
24230;BME280;12362;50.004;8.006;2024-02-21T04:17:44;101288.38;;;6.77;100.00
24230;BME280;12362;50.004;8.006;2024-02-21T04:20:14;101301.59;;;6.59;100.00
24230;BME280;12362;50.004;8.006;2024-02-21T04:22:42;101282.84;;;6.51;100.00
24230;BME280;12362;50.004;8.006;2024-02-21T04:25:08;101288.84;;;6.51;100.00
24230;BME280;12362;50.004;8.006;2024-02-21T04:27:33;101281.09;;;6.51;100.00
24230;BME280;12362;50.004;8.006;2024-02-21T04:29:59;101274.28;;;6.50;100.00
24230;BME280;12362;50.004;8.006;2024-02-21T04:32:25;101263.97;;;6.49;100.00
24230;BME280;12362;50.004;8.006;2024-02-21T04:34:53;101264.03;;;6.44;100.00
24230;BME280;12362;50.004;8.006;2024-02-21T04:37:18;101259.97;;;6.33;100.00
24230;BME280;12362;50.004;8.006;2024-02-21T04:39:44;101256.03;;;6.13;100.00
24230;BME280;12362;50.004;8.006;2024-02-21T04:42:10;101250.13;;;6.05;100.00
24230;BME280;12362;50.004;8.006;2024-02-21T04:44:36;101249.22;;;6.09;100.00
24230;BME280;12362;50.004;8.006;2024-02-21T04:47:01;101245.78;;;6.10;100.00
24230;BME280;12362;50.004;8.006;2024-02-21T04:49:27;101254.41;;;6.07;100.00
24230;BME280;12362;50.004;8.006;2024-02-21T04:51:52;101248.44;;;6.05;100.00
24230;BME280;12362;50.004;8.006;2024-02-21T04:54:18;101255.28;;;6.06;100.00
24230;BME280;12362;50.004;8.006;2024-02-21T04:56:43;101247.56;;;6.06;100.00
24230;BME280;12362;50.004;8.006;2024-02-21T04:59:08;101239.81;;;6.05;100.00
24230;BME280;12362;50.004;8.006;2024-02-21T05:01:34;101245.06;;;6.00;100.00
24230;BME280;12362;50.004;8.006;2024-02-21T05:03:59;101250.50;;;5.84;100.00
24230;BME280;12362;50.004;8.006;2024-02-21T05:06:25;101254.84;;;5.80;100.00
24230;BME280;12362;50.004;8.006;2024-02-21T05:08:50;101264.44;;;5.69;100.00
24230;BME280;12362;50.004;8.006;2024-02-21T05:11:16;101268.00;;;5.62;100.00
24230;BME280;12362;50.004;8.006;2024-02-21T05:13:42;101263.06;;;5.47;100.00
24230;BME280;12362;50.004;8.006;2024-02-21T05:16:07;101267.53;;;5.37;100.00
24230;BME280;12362;50.004;8.006;2024-02-21T05:18:33;101265.75;;;5.40;100.00
24230;BME280;12362;50.004;8.006;2024-02-21T05:20:59;101268.34;;;5.38;100.00
24230;BME280;12362;50.004;8.006;2024-02-21T05:23:24;101258.88;;;5.39;100.00
24230;BME280;12362;50.004;8.006;2024-02-21T05:25:53;101233.97;;;5.41;100.00
24230;BME280;12362;50.004;8.006;2024-02-21T05:28:19;101237.34;;;5.44;100.00
24230;BME280;12362;50.004;8.006;2024-02-21T05:30:44;101243.38;;;5.43;100.00
24230;BME280;12362;50.004;8.006;2024-02-21T05:33:09;101234.88;;;5.37;100.00
24230;BME280;12362;50.004;8.006;2024-02-21T05:35:35;101225.66;;;5.23;100.00
24230;BME280;12362;50.004;8.006;2024-02-21T05:38:04;101231.69;;;5.22;100.00
24230;BME280;12362;50.004;8.006;2024-02-21T05:40:33;101230.91;;;5.15;100.00
24230;BME280;12362;50.004;8.006;2024-02-21T05:42:58;101234.31;;;5.16;100.00
24230;BME280;12362;50.004;8.006;2024-02-21T05:45:27;101229.19;;;5.17;100.00
24230;BME280;12362;50.004;8.006;2024-02-21T05:47:53;101228.44;;;5.08;100.00
24230;BME280;12362;50.004;8.006;2024-02-21T05:50:18;101232.00;;;4.98;100.00
24230;BME280;12362;50.004;8.006;2024-02-21T05:52:44;101244.03;;;4.97;100.00
24230;BME280;12362;50.004;8.006;2024-02-21T05:55:10;101238.22;;;4.83;100.00
24230;BME280;12362;50.004;8.006;2024-02-21T05:57:35;101238.19;;;4.85;100.00
24230;BME280;12362;50.004;8.006;2024-02-21T06:00:04;101228.56;;;4.99;100.00
24230;BME280;12362;50.004;8.006;2024-02-21T06:02:37;101223.28;;;5.09;100.00
24230;BME280;12362;50.004;8.006;2024-02-21T06:05:03;101213.72;;;5.16;100.00
24230;BME280;12362;50.004;8.006;2024-02-21T06:07:33;101212.06;;;5.15;100.00
24230;BME280;12362;50.004;8.006;2024-02-21T06:09:58;101211.38;;;5.01;100.00
24230;BME280;12362;50.004;8.006;2024-02-21T06:12:24;101218.69;;;4.66;100.00
24230;BME280;12362;50.004;8.006;2024-02-21T06:14:49;101211.97;;;4.54;100.00
24230;BME280;12362;50.004;8.006;2024-02-21T06:17:15;101218.78;;;4.57;100.00
24230;BME280;12362;50.004;8.006;2024-02-21T06:19:42;101214.44;;;4.65;100.00
24230;BME280;12362;50.004;8.006;2024-02-21T06:22:08;101211.88;;;4.62;100.00
24230;BME280;12362;50.004;8.006;2024-02-21T06:24:35;101205.97;;;4.52;100.00
24230;BME280;12362;50.004;8.006;2024-02-21T06:27:00;101197.56;;;4.43;100.00
24230;BME280;12362;50.004;8.006;2024-02-21T06:29:25;101191.50;;;4.48;100.00
24230;BME280;12362;50.004;8.006;2024-02-21T06:31:51;101192.16;;;4.62;100.00
24230;BME280;12362;50.004;8.006;2024-02-21T06:34:17;101197.28;;;4.64;100.00
24230;BME280;12362;50.004;8.006;2024-02-21T06:36:42;101188.94;;;4.46;100.00
24230;BME280;12362;50.004;8.006;2024-02-21T06:39:10;101194.13;;;4.43;100.00
24230;BME280;12362;50.004;8.006;2024-02-21T06:41:37;101200.13;;;4.43;100.00
24230;BME280;12362;50.004;8.006;2024-02-21T06:44:02;101196.75;;;4.35;100.00
24230;BME280;12362;50.004;8.006;2024-02-21T06:46:28;101199.44;;;4.26;100.00
24230;BME280;12362;50.004;8.006;2024-02-21T06:48:55;101197.66;;;4.33;100.00
24230;BME280;12362;50.004;8.006;2024-02-21T06:51:25;101194.13;;;4.43;100.00
24230;BME280;12362;50.004;8.006;2024-02-21T06:53:51;101196.59;;;4.50;100.00
24230;BME280;12362;50.004;8.006;2024-02-21T06:56:17;101199.84;;;4.65;100.00
24230;BME280;12362;50.004;8.006;2024-02-21T06:58:42;101199.78;;;4.70;100.00
24230;BME280;12362;50.004;8.006;2024-02-21T07:01:08;101195.47;;;4.72;100.00
24230;BME280;12362;50.004;8.006;2024-02-21T07:03:34;101191.97;;;4.77;100.00
24230;BME280;12362;50.004;8.006;2024-02-21T07:05:59;101197.03;;;4.82;100.00
24230;BME280;12362;50.004;8.006;2024-02-21T07:08:24;101190.09;;;4.88;100.00
24230;BME280;12362;50.004;8.006;2024-02-21T07:10:50;101183.03;;;5.04;100.00
24230;BME280;12362;50.004;8.006;2024-02-21T07:13:15;101187.97;;;5.19;100.00
24230;BME280;12362;50.004;8.006;2024-02-21T07:15:43;101191.06;;;5.40;100.00
24230;BME280;12362;50.004;8.006;2024-02-21T07:18:08;101198.56;;;5.55;100.00
24230;BME280;12362;50.004;8.006;2024-02-21T07:20:34;101198.34;;;5.68;100.00
24230;BME280;12362;50.004;8.006;2024-02-21T07:23:03;101195.63;;;5.79;100.00
24230;BME280;12362;50.004;8.006;2024-02-21T07:25:29;101196.34;;;5.87;100.00
24230;BME280;12362;50.004;8.006;2024-02-21T07:27:54;101187.47;;;6.03;100.00
24230;BME280;12362;50.004;8.006;2024-02-21T07:30:20;101181.09;;;6.22;100.00
24230;BME280;12362;50.004;8.006;2024-02-21T07:32:45;101179.16;;;6.32;100.00
24230;BME280;12362;50.004;8.006;2024-02-21T07:35:11;101184.03;;;6.47;100.00
24230;BME280;12362;50.004;8.006;2024-02-21T07:37:37;101192.47;;;6.55;100.00
24230;BME280;12362;50.004;8.006;2024-02-21T07:40:06;101181.78;;;6.73;100.00
24230;BME280;12362;50.004;8.006;2024-02-21T07:42:32;101170.22;;;6.91;100.00
24230;BME280;12362;50.004;8.006;2024-02-21T07:44:58;101169.84;;;7.07;100.00
24230;BME280;12362;50.004;8.006;2024-02-21T07:47:24;101161.78;;;7.22;100.00
24230;BME280;12362;50.004;8.006;2024-02-21T07:49:49;101160.56;;;7.36;100.00
24230;BME280;12362;50.004;8.006;2024-02-21T07:52:15;101159.34;;;7.51;100.00
24230;BME280;12362;50.004;8.006;2024-02-21T07:54:41;101149.66;;;7.59;100.00
24230;BME280;12362;50.004;8.006;2024-02-21T07:57:09;101146.69;;;7.74;100.00
24230;BME280;12362;50.004;8.006;2024-02-21T07:59:35;101144.72;;;7.83;100.00
24230;BME280;12362;50.004;8.006;2024-02-21T08:02:01;101143.53;;;7.95;100.00
24230;BME280;12362;50.004;8.006;2024-02-21T08:04:30;101147.56;;;8.06;100.00
24230;BME280;12362;50.004;8.006;2024-02-21T08:06:55;101135.47;;;8.07;100.00
24230;BME280;12362;50.004;8.006;2024-02-21T08:09:24;101136.47;;;8.03;100.00
24230;BME280;12362;50.004;8.006;2024-02-21T08:11:50;101120.69;;;8.11;100.00
24230;BME280;12362;50.004;8.006;2024-02-21T08:14:18;101124.81;;;8.18;100.00
24230;BME280;12362;50.004;8.006;2024-02-21T08:16:43;101136.63;;;8.28;100.00
24230;BME280;12362;50.004;8.006;2024-02-21T08:19:10;101115.22;;;8.23;100.00
24230;BME280;12362;50.004;8.006;2024-02-21T08:21:36;101110.03;;;8.23;100.00
24230;BME280;12362;50.004;8.006;2024-02-21T08:24:01;101109.84;;;8.29;100.00
24230;BME280;12362;50.004;8.006;2024-02-21T08:26:27;101109.75;;;8.34;100.00
24230;BME280;12362;50.004;8.006;2024-02-21T08:28:56;101107.03;;;8.38;100.00
24230;BME280;12362;50.004;8.006;2024-02-21T08:31:25;101113.66;;;8.47;100.00
24230;BME280;12362;50.004;8.006;2024-02-21T08:34:00;101101.84;;;8.38;100.00
24230;BME280;12362;50.004;8.006;2024-02-21T08:36:29;101115.34;;;8.48;100.00
24230;BME280;12362;50.004;8.006;2024-02-21T08:38:56;101111.75;;;8.53;100.00
24230;BME280;12362;50.004;8.006;2024-02-21T08:41:23;101118.13;;;8.42;100.00
24230;BME280;12362;50.004;8.006;2024-02-21T08:43:50;101111.72;;;8.55;100.00
24230;BME280;12362;50.004;8.006;2024-02-21T08:46:16;101103.31;;;8.76;100.00
24230;BME280;12362;50.004;8.006;2024-02-21T08:48:43;101091.41;;;8.98;100.00
24230;BME280;12362;50.004;8.006;2024-02-21T08:51:11;101078.94;;;9.08;100.00
24230;BME280;12362;50.004;8.006;2024-02-21T08:53:37;101063.25;;;9.13;100.00
24230;BME280;12362;50.004;8.006;2024-02-21T08:56:11;101061.22;;;9.48;100.00
24230;BME280;12362;50.004;8.006;2024-02-21T08:58:38;101050.53;;;9.82;100.00
24230;BME280;12362;50.004;8.006;2024-02-21T09:01:05;101044.91;;;9.93;100.00
24230;BME280;12362;50.004;8.006;2024-02-21T09:03:33;101047.59;;;10.15;100.00
24230;BME280;12362;50.004;8.006;2024-02-21T09:05:59;101050.88;;;10.20;100.00
24230;BME280;12362;50.004;8.006;2024-02-21T09:08:26;101049.91;;;9.99;100.00
24230;BME280;12362;50.004;8.006;2024-02-21T09:10:52;101038.56;;;10.02;100.00
24230;BME280;12362;50.004;8.006;2024-02-21T09:13:18;101030.91;;;9.75;100.00
24230;BME280;12362;50.004;8.006;2024-02-21T09:15:44;101034.09;;;9.83;100.00
24230;BME280;12362;50.004;8.006;2024-02-21T09:18:10;101030.78;;;10.02;100.00
24230;BME280;12362;50.004;8.006;2024-02-21T09:20:35;101016.81;;;10.06;100.00
24230;BME280;12362;50.004;8.006;2024-02-21T09:23:01;101022.28;;;10.21;100.00
24230;BME280;12362;50.004;8.006;2024-02-21T09:25:27;101010.81;;;10.27;100.00
24230;BME280;12362;50.004;8.006;2024-02-21T09:27:54;101012.94;;;10.39;100.00
24230;BME280;12362;50.004;8.006;2024-02-21T09:30:20;101014.47;;;10.44;100.00
24230;BME280;12362;50.004;8.006;2024-02-21T09:32:45;101004.97;;;10.22;100.00
24230;BME280;12362;50.004;8.006;2024-02-21T09:35:11;101009.66;;;10.12;100.00
24230;BME280;12362;50.004;8.006;2024-02-21T09:37:38;100999.88;;;10.19;100.00
24230;BME280;12362;50.004;8.006;2024-02-21T09:40:05;101001.63;;;10.41;100.00
24230;BME280;12362;50.004;8.006;2024-02-21T09:42:37;100985.44;;;10.78;100.00
24230;BME280;12362;50.004;8.006;2024-02-21T09:45:21;100984.44;;;11.01;100.00
24230;BME280;12362;50.004;8.006;2024-02-21T09:48:11;100978.25;;;11.04;100.00
24230;BME280;12362;50.004;8.006;2024-02-21T09:50:40;100971.84;;;11.12;100.00
24230;BME280;12362;50.004;8.006;2024-02-21T09:53:09;100973.84;;;11.06;100.00
24230;BME280;12362;50.004;8.006;2024-02-21T09:55:37;100970.41;;;11.45;100.00
24230;BME280;12362;50.004;8.006;2024-02-21T09:58:05;100970.31;;;11.28;100.00
24230;BME280;12362;50.004;8.006;2024-02-21T10:00:31;100975.75;;;11.02;100.00
24230;BME280;12362;50.004;8.006;2024-02-21T10:02:58;100966.72;;;11.11;100.00
24230;BME280;12362;50.004;8.006;2024-02-21T10:05:24;100961.22;;;11.18;100.00
24230;BME280;12362;50.004;8.006;2024-02-21T10:07:51;100957.03;;;11.14;100.00
24230;BME280;12362;50.004;8.006;2024-02-21T10:10:16;100963.44;;;11.26;100.00
24230;BME280;12362;50.004;8.006;2024-02-21T10:12:51;100953.78;;;11.09;100.00
24230;BME280;12362;50.004;8.006;2024-02-21T10:15:24;100946.81;;;11.30;100.00
24230;BME280;12362;50.004;8.006;2024-02-21T10:18:01;100947.53;;;11.33;100.00
24230;BME280;12362;50.004;8.006;2024-02-21T10:20:29;100946.44;;;10.99;100.00
24230;BME280;12362;50.004;8.006;2024-02-21T10:23:04;100948.13;;;11.00;100.00
24230;BME280;12362;50.004;8.006;2024-02-21T10:25:39;100944.16;;;11.11;100.00
24230;BME280;12362;50.004;8.006;2024-02-21T10:28:12;100928.31;;;11.37;100.00
24230;BME280;12362;50.004;8.006;2024-02-21T10:30:49;100922.63;;;11.68;100.00
24230;BME280;12362;50.004;8.006;2024-02-21T10:33:18;100923.84;;;11.21;100.00
24230;BME280;12362;50.004;8.006;2024-02-21T10:35:47;100917.63;;;11.43;100.00
24230;BME280;12362;50.004;8.006;2024-02-21T10:38:22;100912.56;;;11.60;100.00
24230;BME280;12362;50.004;8.006;2024-02-21T10:41:03;100905.47;;;11.44;100.00
24230;BME280;12362;50.004;8.006;2024-02-21T10:43:37;100905.47;;;11.64;100.00
24230;BME280;12362;50.004;8.006;2024-02-21T10:46:05;100904.38;;;11.49;100.00
24230;BME280;12362;50.004;8.006;2024-02-21T10:48:57;100901.75;;;11.69;100.00
24230;BME280;12362;50.004;8.006;2024-02-21T10:51:23;100889.66;;;11.68;100.00
24230;BME280;12362;50.004;8.006;2024-02-21T10:54:15;100897.09;;;11.76;100.00
24230;BME280;12362;50.004;8.006;2024-02-21T10:56:53;100896.88;;;11.80;100.00
24230;BME280;12362;50.004;8.006;2024-02-21T10:59:22;100897.53;;;11.67;100.00
24230;BME280;12362;50.004;8.006;2024-02-21T11:01:58;100877.38;;;11.52;100.00
24230;BME280;12362;50.004;8.006;2024-02-21T11:04:45;100880.78;;;11.54;100.00
24230;BME280;12362;50.004;8.006;2024-02-21T11:07:20;100880.44;;;11.61;100.00
24230;BME280;12362;50.004;8.006;2024-02-21T11:09:53;100869.69;;;11.69;100.00
24230;BME280;12362;50.004;8.006;2024-02-21T11:12:21;100876.16;;;11.60;100.00
24230;BME280;12362;50.004;8.006;2024-02-21T11:14:48;100863.84;;;11.64;100.00
24230;BME280;12362;50.004;8.006;2024-02-21T11:17:17;100867.72;;;11.74;100.00
24230;BME280;12362;50.004;8.006;2024-02-21T11:19:44;100848.97;;;11.47;100.00
24230;BME280;12362;50.004;8.006;2024-02-21T11:22:16;100859.66;;;11.41;100.00
24230;BME280;12362;50.004;8.006;2024-02-21T11:24:42;100852.81;;;11.59;100.00
24230;BME280;12362;50.004;8.006;2024-02-21T11:27:16;100845.84;;;11.77;100.00
24230;BME280;12362;50.004;8.006;2024-02-21T11:29:58;100843.47;;;11.73;100.00
24230;BME280;12362;50.004;8.006;2024-02-21T11:32:32;100843.13;;;11.80;100.00
24230;BME280;12362;50.004;8.006;2024-02-21T11:35:02;100831.50;;;11.69;100.00
24230;BME280;12362;50.004;8.006;2024-02-21T11:37:30;100832.63;;;11.64;100.00
24230;BME280;12362;50.004;8.006;2024-02-21T11:39:59;100828.56;;;11.58;100.00
24230;BME280;12362;50.004;8.006;2024-02-21T11:42:28;100828.69;;;11.74;100.00
24230;BME280;12362;50.004;8.006;2024-02-21T11:44:56;100818.25;;;11.57;100.00
24230;BME280;12362;50.004;8.006;2024-02-21T11:47:23;100813.25;;;11.71;100.00
24230;BME280;12362;50.004;8.006;2024-02-21T11:49:51;100805.09;;;11.78;100.00
24230;BME280;12362;50.004;8.006;2024-02-21T11:52:23;100801.34;;;11.83;100.00
24230;BME280;12362;50.004;8.006;2024-02-21T11:54:53;100797.97;;;11.45;100.00
24230;BME280;12362;50.004;8.006;2024-02-21T11:57:20;100778.53;;;11.53;100.00
24230;BME280;12362;50.004;8.006;2024-02-21T11:59:46;100779.59;;;11.84;100.00
24230;BME280;12362;50.004;8.006;2024-02-21T12:02:12;100763.97;;;11.68;100.00
24230;BME280;12362;50.004;8.006;2024-02-21T12:04:38;100765.13;;;11.61;100.00
24230;BME280;12362;50.004;8.006;2024-02-21T12:07:04;100753.06;;;11.78;100.00
24230;BME280;12362;50.004;8.006;2024-02-21T12:09:30;100759.69;;;12.02;100.00
24230;BME280;12362;50.004;8.006;2024-02-21T12:12:06;100747.34;;;12.05;100.00
24230;BME280;12362;50.004;8.006;2024-02-21T12:14:33;100750.28;;;11.81;100.00
24230;BME280;12362;50.004;8.006;2024-02-21T12:17:00;100740.31;;;12.07;100.00
24230;BME280;12362;50.004;8.006;2024-02-21T12:19:29;100728.50;;;12.00;100.00
24230;BME280;12362;50.004;8.006;2024-02-21T12:21:55;100719.63;;;12.04;100.00
24230;BME280;12362;50.004;8.006;2024-02-21T12:24:24;100724.59;;;12.09;100.00
24230;BME280;12362;50.004;8.006;2024-02-21T12:26:51;100711.50;;;12.10;100.00
24230;BME280;12362;50.004;8.006;2024-02-21T12:29:18;100705.41;;;12.28;100.00
24230;BME280;12362;50.004;8.006;2024-02-21T12:31:46;100699.41;;;12.09;100.00
24230;BME280;12362;50.004;8.006;2024-02-21T12:34:16;100682.94;;;11.92;100.00
24230;BME280;12362;50.004;8.006;2024-02-21T12:36:55;100684.63;;;11.76;100.00
24230;BME280;12362;50.004;8.006;2024-02-21T12:39:20;100679.88;;;11.67;100.00
24230;BME280;12362;50.004;8.006;2024-02-21T12:41:46;100675.53;;;11.68;100.00
24230;BME280;12362;50.004;8.006;2024-02-21T12:44:15;100671.72;;;11.91;100.00
24230;BME280;12362;50.004;8.006;2024-02-21T12:46:42;100672.09;;;12.01;100.00
24230;BME280;12362;50.004;8.006;2024-02-21T12:49:19;100678.84;;;11.88;100.00